createdAt,value
2023-04-26T00:00:32.278Z,7.27
2023-04-26T00:02:59.427Z,7.31
2023-04-26T00:05:26.573Z,7.24
2023-04-26T00:07:53.301Z,7.20
2023-04-26T00:10:20.029Z,7.36
2023-04-26T00:12:46.636Z,7.26
2023-04-26T00:15:14.766Z,7.25
2023-04-26T00:17:41.387Z,7.43
2023-04-26T00:20:08.411Z,7.93
2023-04-26T00:22:35.141Z,7.80
2023-04-26T00:25:02.001Z,7.57
2023-04-26T00:27:28.643Z,7.46
2023-04-26T00:29:55.366Z,7.80
2023-04-26T00:32:22.049Z,7.45
2023-04-26T00:34:48.883Z,7.64
2023-04-26T00:37:15.584Z,7.50
2023-04-26T00:39:42.222Z,7.66
2023-04-26T00:42:09.018Z,7.32
2023-04-26T00:44:35.623Z,7.45
2023-04-26T00:47:02.564Z,7.39
2023-04-26T00:49:29.265Z,7.46
2023-04-26T00:51:56.086Z,7.60
2023-04-26T00:54:22.854Z,7.48
2023-04-26T00:56:49.553Z,7.28
2023-04-26T00:59:16.390Z,7.49
2023-04-26T01:01:43.179Z,7.40
2023-04-26T01:04:10.077Z,7.56
2023-04-26T01:06:37.077Z,7.41
2023-04-26T01:09:05.224Z,7.30
2023-04-26T01:11:33.187Z,7.28
2023-04-26T01:13:59.842Z,7.17
2023-04-26T01:16:28.162Z,7.00
2023-04-26T01:18:55.042Z,6.99
2023-04-26T01:21:22.768Z,6.97
2023-04-26T01:23:50.413Z,6.88
2023-04-26T01:26:17.819Z,6.78
2023-04-26T01:28:45.133Z,6.72
2023-04-26T01:31:12.742Z,6.83
2023-04-26T01:33:39.433Z,6.55
2023-04-26T01:36:10.330Z,6.81
2023-04-26T01:38:37.124Z,6.92
2023-04-26T01:41:04.518Z,6.50
2023-04-26T01:43:31.330Z,6.74
2023-04-26T01:45:58.157Z,6.42
2023-04-26T01:48:24.816Z,6.53
2023-04-26T01:50:51.430Z,6.36
2023-04-26T01:53:18.146Z,6.29
2023-04-26T01:55:44.800Z,6.26
2023-04-26T01:58:11.400Z,6.35
2023-04-26T02:00:38.083Z,6.39
2023-04-26T02:03:04.787Z,6.38
2023-04-26T02:05:31.602Z,6.43
2023-04-26T02:07:58.361Z,6.36
2023-04-26T02:10:24.951Z,6.27
2023-04-26T02:12:51.672Z,6.16
2023-04-26T02:15:18.312Z,6.26
2023-04-26T02:17:45.046Z,6.17
2023-04-26T02:20:12.172Z,6.27
2023-04-26T02:22:38.809Z,6.17
2023-04-26T02:25:05.936Z,6.19
2023-04-26T02:27:32.521Z,6.34
2023-04-26T02:29:59.575Z,6.29
2023-04-26T02:32:26.434Z,6.35
2023-04-26T02:34:53.111Z,6.15
2023-04-26T02:37:19.948Z,5.97
2023-04-26T02:39:50.197Z,6.13
2023-04-26T02:42:17.498Z,6.01
2023-04-26T02:44:45.362Z,6.10
2023-04-26T02:47:11.968Z,5.88
2023-04-26T02:49:38.618Z,6.14
2023-04-26T02:52:05.351Z,5.92
2023-04-26T02:54:31.992Z,6.14
2023-04-26T02:56:58.701Z,6.34
2023-04-26T02:59:25.552Z,6.11
2023-04-26T03:01:52.260Z,5.93
2023-04-26T03:04:19.042Z,6.06
2023-04-26T03:06:45.737Z,5.87
2023-04-26T03:09:12.393Z,6.02
2023-04-26T03:11:38.995Z,6.03
2023-04-26T03:14:05.626Z,6.25
2023-04-26T03:16:41.390Z,5.97
2023-04-26T03:19:08.336Z,5.99
2023-04-26T03:21:35.096Z,5.96
2023-04-26T03:24:01.951Z,5.88
2023-04-26T03:26:28.622Z,5.99
2023-04-26T03:28:55.247Z,5.95
2023-04-26T03:31:21.904Z,5.90
2023-04-26T03:33:48.724Z,5.91
2023-04-26T03:36:15.566Z,5.73
2023-04-26T03:38:42.259Z,5.82
2023-04-26T03:41:08.970Z,6.01
2023-04-26T03:43:35.626Z,5.96
2023-04-26T03:46:02.342Z,5.95
2023-04-26T03:48:29.090Z,5.82
2023-04-26T03:50:55.862Z,5.58
2023-04-26T03:53:22.551Z,5.66
2023-04-26T03:55:49.162Z,5.75
2023-04-26T03:58:15.803Z,5.76
2023-04-26T04:00:42.507Z,5.67
2023-04-26T04:03:09.797Z,5.69
2023-04-26T04:05:36.659Z,5.72
2023-04-26T04:08:03.849Z,5.58
2023-04-26T04:10:30.600Z,5.57
2023-04-26T04:12:57.336Z,5.42
2023-04-26T04:15:24.040Z,5.53
2023-04-26T04:17:50.979Z,5.67
2023-04-26T04:20:18.044Z,5.82
2023-04-26T04:22:44.797Z,5.78
2023-04-26T04:25:11.416Z,5.71
2023-04-26T04:27:38.319Z,5.64
2023-04-26T04:30:06.247Z,5.61
2023-04-26T04:32:33.058Z,5.55
2023-04-26T04:35:00.018Z,5.66
2023-04-26T04:37:26.767Z,5.92
2023-04-26T04:39:53.735Z,5.90
2023-04-26T04:42:20.386Z,5.99
2023-04-26T04:44:47.244Z,5.89
2023-04-26T04:47:13.922Z,5.98
2023-04-26T04:49:40.716Z,5.88
2023-04-26T04:52:07.395Z,6.06
2023-04-26T04:54:34.187Z,6.07
2023-04-26T04:57:00.839Z,6.22
2023-04-26T04:59:28.061Z,5.97
2023-04-26T05:01:54.815Z,6.35
2023-04-26T05:04:22.022Z,6.14
2023-04-26T05:06:49.173Z,6.13
2023-04-26T05:09:15.837Z,6.31
2023-04-26T05:11:42.494Z,6.42
2023-04-26T05:14:09.312Z,6.33
2023-04-26T05:16:36.028Z,6.50
2023-04-26T05:19:02.705Z,6.44
2023-04-26T05:21:29.317Z,6.48
2023-04-26T05:23:55.994Z,6.44
2023-04-26T05:26:22.836Z,6.29
2023-04-26T05:28:49.505Z,6.31
2023-04-26T05:31:16.429Z,6.51
2023-04-26T05:33:43.116Z,6.55
2023-04-26T05:36:09.947Z,6.53
2023-04-26T05:38:36.675Z,6.41
2023-04-26T05:41:03.521Z,6.52
2023-04-26T05:43:30.151Z,6.58
2023-04-26T05:45:57.338Z,6.71
2023-04-26T05:48:25.224Z,6.80
2023-04-26T05:50:52.606Z,6.84
2023-04-26T05:53:20.016Z,6.78
2023-04-26T05:55:46.964Z,6.94
2023-04-26T05:58:13.892Z,6.92
2023-04-26T06:00:40.902Z,7.08
2023-04-26T06:03:07.976Z,6.83
2023-04-26T06:05:36.934Z,6.88
2023-04-26T06:08:03.753Z,7.04
2023-04-26T06:10:30.420Z,6.98
2023-04-26T06:12:57.078Z,6.74
2023-04-26T06:15:23.757Z,7.05
2023-04-26T06:17:50.551Z,7.03
2023-04-26T06:20:17.220Z,7.21
2023-04-26T06:22:43.976Z,7.08
2023-04-26T06:25:10.747Z,7.24
2023-04-26T06:27:37.402Z,6.95
2023-04-26T06:30:05.142Z,7.21
2023-04-26T06:32:33.213Z,7.30
2023-04-26T06:35:00.041Z,7.37
2023-04-26T06:37:26.670Z,7.28
2023-04-26T06:39:53.324Z,7.37
2023-04-26T06:42:20.253Z,7.57
2023-04-26T06:44:46.967Z,7.50
2023-04-26T06:47:13.872Z,7.66
2023-04-26T06:49:40.509Z,7.42
2023-04-26T06:52:09.036Z,7.69
2023-04-26T06:54:39.996Z,7.74
2023-04-26T06:57:13.170Z,7.81
2023-04-26T06:59:39.788Z,7.88
2023-04-26T07:02:06.816Z,8.04
2023-04-26T07:04:33.612Z,8.13
2023-04-26T07:07:00.710Z,8.04
2023-04-26T07:09:27.476Z,8.02
2023-04-26T07:11:54.119Z,8.04
2023-04-26T07:14:20.871Z,8.29
2023-04-26T07:16:47.601Z,8.18
2023-04-26T07:19:14.507Z,8.47
2023-04-26T07:21:41.185Z,8.56
2023-04-26T07:24:07.945Z,8.46
2023-04-26T07:26:35.675Z,8.66
2023-04-26T07:29:02.576Z,8.44
2023-04-26T07:31:30.699Z,8.57
2023-04-26T07:33:57.750Z,8.86
2023-04-26T07:36:25.144Z,8.90
2023-04-26T07:38:51.923Z,8.64
2023-04-26T07:41:18.575Z,8.88
2023-04-26T07:43:45.319Z,8.89
2023-04-26T07:46:12.094Z,8.85
2023-04-26T07:48:38.717Z,9.03
2023-04-26T07:51:10.308Z,8.82
2023-04-26T07:53:37.537Z,8.92
2023-04-26T07:56:04.945Z,8.89
2023-04-26T07:58:31.650Z,9.01
2023-04-26T08:00:58.686Z,9.03
2023-04-26T08:03:25.845Z,9.13
2023-04-26T08:05:52.656Z,9.12
2023-04-26T08:08:19.923Z,9.06
2023-04-26T08:10:46.565Z,8.92
2023-04-26T08:13:13.243Z,9.03
2023-04-26T08:15:40.125Z,9.19
2023-04-26T08:18:06.765Z,9.13
2023-04-26T08:20:33.391Z,9.28
2023-04-26T08:23:00.154Z,9.27
2023-04-26T08:25:26.969Z,9.36
2023-04-26T08:27:53.583Z,9.48
2023-04-26T08:30:20.443Z,9.58
2023-04-26T08:32:47.161Z,9.74
2023-04-26T08:35:13.930Z,9.71
2023-04-26T08:37:40.670Z,9.58
2023-04-26T08:40:08.472Z,9.52
2023-04-26T08:42:40.167Z,9.82
2023-04-26T08:45:08.081Z,10.05
2023-04-26T08:47:45.545Z,10.22
2023-04-26T08:50:13.150Z,10.20
2023-04-26T08:52:40.440Z,10.29
2023-04-26T08:55:09.169Z,9.99
2023-04-26T08:57:36.684Z,10.17
2023-04-26T09:00:05.745Z,10.11
2023-04-26T09:02:32.981Z,10.16
2023-04-26T09:05:00.248Z,9.83
2023-04-26T09:07:31.871Z,10.24
2023-04-26T09:09:59.829Z,10.48
2023-04-26T09:12:26.523Z,10.33
2023-04-26T09:14:53.198Z,9.77
2023-04-26T09:17:32.687Z,10.25
2023-04-26T09:20:01.160Z,10.45
2023-04-26T09:22:37.397Z,10.75
2023-04-26T09:25:05.653Z,10.69
2023-04-26T09:27:35.170Z,10.66
2023-04-26T09:30:18.462Z,10.49
2023-04-26T09:32:51.565Z,10.59
2023-04-26T09:35:24.365Z,10.95
2023-04-26T09:38:07.952Z,10.54
2023-04-26T09:40:49.682Z,10.90
2023-04-26T09:43:16.422Z,11.15
2023-04-26T09:45:58.937Z,11.16
2023-04-26T09:48:27.525Z,11.16
2023-04-26T09:50:56.088Z,11.12
2023-04-26T09:53:28.652Z,11.13
2023-04-26T09:55:56.834Z,11.48
2023-04-26T09:58:23.932Z,11.22
2023-04-26T10:00:51.979Z,11.34
2023-04-26T10:03:19.933Z,11.69
2023-04-26T10:05:46.983Z,11.22
2023-04-26T10:08:13.966Z,11.45
2023-04-26T10:10:41.437Z,11.35
2023-04-26T10:13:08.604Z,11.26
2023-04-26T10:15:35.770Z,11.32
2023-04-26T10:18:02.512Z,11.53
2023-04-26T10:20:29.924Z,11.57
2023-04-26T10:22:58.965Z,11.67
2023-04-26T10:25:35.720Z,11.92
2023-04-26T10:28:02.583Z,11.92
2023-04-26T10:30:29.532Z,11.82
2023-04-26T10:32:56.370Z,11.82
2023-04-26T10:35:32.447Z,11.97
2023-04-26T10:38:01.762Z,12.24
2023-04-26T10:40:37.279Z,12.18
2023-04-26T10:43:12.853Z,11.50
2023-04-26T10:45:41.415Z,11.20
2023-04-26T10:48:13.913Z,11.84
2023-04-26T10:50:58.878Z,11.71
2023-04-26T10:53:25.774Z,11.90
2023-04-26T10:55:52.484Z,11.41
2023-04-26T10:58:33.355Z,10.90
2023-04-26T11:01:09.856Z,11.34
2023-04-26T11:03:36.817Z,11.51
2023-04-26T11:06:10.367Z,11.95
2023-04-26T11:08:37.162Z,12.40
2023-04-26T11:11:03.711Z,12.05
2023-04-26T11:13:36.030Z,12.18
2023-04-26T11:16:05.792Z,12.27
2023-04-26T11:18:33.409Z,11.90
2023-04-26T11:21:01.113Z,11.72
2023-04-26T11:23:30.073Z,12.02
2023-04-26T11:26:00.608Z,12.45
2023-04-26T11:28:27.252Z,11.82
2023-04-26T11:30:53.893Z,11.90
2023-04-26T11:33:21.630Z,12.22
2023-04-26T11:35:55.784Z,12.19
2023-04-26T11:38:26.813Z,11.92
2023-04-26T11:40:56.396Z,11.81
2023-04-26T11:43:27.698Z,11.81
2023-04-26T11:45:59.183Z,11.73
2023-04-26T11:48:26.505Z,11.78
2023-04-26T11:50:53.706Z,11.40
2023-04-26T11:53:20.440Z,11.02
2023-04-26T11:55:47.154Z,11.02
2023-04-26T11:58:14.953Z,11.61
2023-04-26T12:00:59.311Z,12.15
2023-04-26T12:03:33.004Z,12.03
2023-04-26T12:05:59.921Z,12.69
2023-04-26T12:08:27.996Z,13.02
2023-04-26T12:10:54.635Z,12.86
2023-04-26T12:13:21.451Z,12.39
2023-04-26T12:15:48.104Z,11.95
2023-04-26T12:18:15.049Z,11.66
2023-04-26T12:20:43.329Z,11.43
2023-04-26T12:23:14.657Z,11.21
2023-04-26T12:25:52.461Z,10.69
2023-04-26T12:28:19.279Z,10.90
2023-04-26T12:30:46.014Z,10.74
2023-04-26T12:33:17.707Z,10.86
2023-04-26T12:35:45.985Z,11.00
2023-04-26T12:38:12.823Z,11.20
2023-04-26T12:40:39.750Z,10.91
2023-04-26T12:43:07.047Z,11.13
2023-04-26T12:45:33.714Z,11.11
2023-04-26T12:48:00.341Z,10.83
2023-04-26T12:50:27.150Z,10.83
2023-04-26T12:52:54.646Z,10.55
2023-04-26T12:55:23.623Z,10.77
2023-04-26T12:57:50.386Z,10.90
2023-04-26T13:00:17.511Z,10.89
2023-04-26T13:02:44.768Z,11.12
2023-04-26T13:05:11.607Z,10.99
2023-04-26T13:07:40.430Z,11.19
2023-04-26T13:10:07.760Z,11.38
2023-04-26T13:12:34.728Z,10.67
2023-04-26T13:15:01.364Z,10.85
2023-04-26T13:17:28.235Z,10.79
2023-04-26T13:19:54.956Z,10.78
2023-04-26T13:22:21.824Z,10.50
2023-04-26T13:24:48.810Z,10.97
2023-04-26T13:27:15.504Z,11.69
2023-04-26T13:29:42.098Z,11.35
2023-04-26T13:32:08.900Z,11.05
2023-04-26T13:34:36.132Z,11.05
2023-04-26T13:37:02.839Z,10.63
2023-04-26T13:39:29.751Z,10.73
2023-04-26T13:41:56.480Z,11.11
2023-04-26T13:44:23.131Z,11.39
2023-04-26T13:46:49.814Z,11.54
2023-04-26T13:49:16.428Z,11.34
2023-04-26T13:51:43.138Z,11.19
2023-04-26T13:54:09.888Z,11.37
2023-04-26T13:56:36.559Z,11.58
2023-04-26T13:59:03.150Z,11.59
2023-04-26T14:01:30.024Z,11.49
2023-04-26T14:03:57.225Z,11.57
2023-04-26T14:06:24.215Z,11.81
2023-04-26T14:08:50.861Z,11.84
2023-04-26T14:11:17.608Z,11.16
2023-04-26T14:13:44.324Z,10.93
2023-04-26T14:16:10.971Z,11.04
2023-04-26T14:18:37.725Z,11.20
2023-04-26T14:21:04.639Z,11.13
2023-04-26T14:23:31.303Z,10.88
2023-04-26T14:25:57.961Z,10.96
2023-04-26T14:28:24.629Z,10.86
2023-04-26T14:30:51.416Z,10.58
2023-04-26T14:33:18.170Z,10.86
2023-04-26T14:35:44.840Z,10.72
2023-04-26T14:38:11.477Z,10.64
2023-04-26T14:40:38.078Z,10.28
2023-04-26T14:43:04.811Z,10.25
2023-04-26T14:45:43.406Z,10.23
2023-04-26T14:48:11.337Z,10.21
2023-04-26T14:50:38.014Z,10.37
2023-04-26T14:53:04.823Z,10.54
2023-04-26T14:55:31.686Z,10.93
2023-04-26T14:57:58.386Z,11.12
2023-04-26T15:00:25.023Z,11.05
2023-04-26T15:02:51.891Z,10.80
2023-04-26T15:05:19.090Z,10.52
2023-04-26T15:07:45.874Z,10.52
2023-04-26T15:10:12.493Z,10.07
2023-04-26T15:12:39.097Z,10.13
2023-04-26T15:15:06.313Z,10.22
2023-04-26T15:17:33.628Z,10.57
2023-04-26T15:20:03.132Z,10.86
2023-04-26T15:22:29.788Z,10.47
2023-04-26T15:24:56.362Z,10.19
2023-04-26T15:27:23.039Z,10.23
2023-04-26T15:29:49.931Z,10.30
2023-04-26T15:32:16.632Z,10.04
2023-04-26T15:34:43.315Z,10.04
2023-04-26T15:37:10.004Z,10.15
2023-04-26T15:39:36.714Z,10.24
2023-04-26T15:42:04.640Z,9.90
2023-04-26T15:44:32.890Z,10.11
2023-04-26T15:46:59.968Z,9.89
2023-04-26T15:49:26.651Z,10.15
2023-04-26T15:51:53.245Z,9.97
2023-04-26T15:54:19.961Z,9.94
2023-04-26T15:56:46.567Z,9.85
2023-04-26T15:59:13.661Z,10.07
2023-04-26T16:01:40.525Z,9.81
2023-04-26T16:04:07.508Z,9.64
2023-04-26T16:06:34.297Z,9.96
2023-04-26T16:09:02.045Z,10.51
2023-04-26T16:11:28.862Z,10.07
2023-04-26T16:13:55.496Z,10.21
2023-04-26T16:16:22.195Z,10.86
2023-04-26T16:18:48.965Z,11.02
2023-04-26T16:21:15.639Z,11.46
2023-04-26T16:23:42.264Z,11.27
2023-04-26T16:26:09.007Z,11.16
2023-04-26T16:28:35.938Z,10.91
2023-04-26T16:31:02.810Z,11.03
2023-04-26T16:33:29.729Z,11.34
2023-04-26T16:35:56.608Z,11.54
2023-04-26T16:38:23.952Z,11.24
2023-04-26T16:40:58.482Z,11.53
2023-04-26T16:43:26.229Z,10.88
2023-04-26T16:46:04.294Z,10.86
2023-04-26T16:48:32.156Z,10.66
2023-04-26T16:51:00.154Z,10.49
2023-04-26T16:53:27.140Z,10.21
2023-04-26T16:55:53.856Z,10.22
2023-04-26T16:58:20.531Z,10.19
2023-04-26T17:00:47.376Z,9.77
2023-04-26T17:03:14.439Z,9.92
2023-04-26T17:05:45.786Z,9.97
2023-04-26T17:08:16.265Z,9.89
2023-04-26T17:10:44.492Z,9.77
2023-04-26T17:13:11.152Z,9.72
2023-04-26T17:15:37.772Z,9.60
2023-04-26T17:18:05.431Z,9.39
2023-04-26T17:20:33.175Z,9.44
2023-04-26T17:23:03.645Z,9.57
2023-04-26T17:25:30.951Z,9.37
2023-04-26T17:27:57.639Z,9.11
2023-04-26T17:30:24.443Z,8.99
2023-04-26T17:32:51.187Z,8.89
2023-04-26T17:35:17.923Z,9.06
2023-04-26T17:37:44.547Z,9.11
2023-04-26T17:40:11.705Z,8.56
2023-04-26T17:42:38.396Z,8.58
2023-04-26T17:45:05.613Z,8.52
2023-04-26T17:47:32.306Z,8.63
2023-04-26T17:49:59.206Z,8.69
2023-04-26T17:52:25.979Z,8.87
2023-04-26T17:54:52.605Z,8.61
2023-04-26T17:57:19.250Z,8.54
2023-04-26T17:59:46.068Z,8.55
2023-04-26T18:02:13.123Z,8.57
2023-04-26T18:04:40.271Z,8.72
2023-04-26T18:07:07.052Z,8.49
2023-04-26T18:09:33.812Z,8.30
2023-04-26T18:12:00.655Z,8.39
2023-04-26T18:14:27.264Z,8.57
2023-04-26T18:16:54.000Z,8.22
2023-04-26T18:19:20.603Z,8.27
2023-04-26T18:21:47.637Z,8.35
2023-04-26T18:24:14.246Z,8.11
2023-04-26T18:26:41.256Z,7.96
2023-04-26T18:29:07.883Z,8.03
2023-04-26T18:31:34.752Z,8.43
2023-04-26T18:34:01.404Z,8.11
2023-04-26T18:36:28.050Z,8.01
2023-04-26T18:38:54.657Z,7.92
2023-04-26T18:41:21.299Z,8.05
2023-04-26T18:43:47.940Z,7.87
2023-04-26T18:46:14.592Z,8.24
2023-04-26T18:48:41.260Z,8.23
2023-04-26T18:51:07.867Z,8.14
2023-04-26T18:53:34.474Z,8.02
2023-04-26T18:56:01.159Z,7.96
2023-04-26T18:58:27.871Z,8.10
2023-04-26T19:00:54.745Z,7.89
2023-04-26T19:03:21.717Z,8.03
2023-04-26T19:05:48.701Z,8.14
2023-04-26T19:08:15.374Z,8.04
2023-04-26T19:10:42.003Z,7.79
2023-04-26T19:13:08.682Z,7.43
2023-04-26T19:15:35.350Z,7.55
2023-04-26T19:18:02.236Z,7.61
2023-04-26T19:20:28.970Z,7.51
2023-04-26T19:22:55.635Z,7.67
2023-04-26T19:25:24.706Z,7.35
2023-04-26T19:27:51.395Z,7.65
2023-04-26T19:30:18.271Z,7.68
2023-04-26T19:32:44.931Z,7.75
2023-04-26T19:35:11.607Z,7.36
2023-04-26T19:37:38.364Z,7.04
2023-04-26T19:40:05.588Z,6.92
2023-04-26T19:42:32.208Z,7.06
2023-04-26T19:44:58.953Z,6.94
2023-04-26T19:47:25.642Z,7.04
2023-04-26T19:49:52.343Z,7.07
2023-04-26T19:52:18.961Z,6.95
2023-04-26T19:54:45.534Z,6.84
2023-04-26T19:57:12.239Z,6.78
2023-04-26T19:59:38.884Z,7.01
2023-04-26T20:02:05.813Z,6.83
2023-04-26T20:04:32.578Z,7.14
2023-04-26T20:06:59.274Z,7.12
2023-04-26T20:09:26.028Z,6.95
2023-04-26T20:11:52.675Z,6.88
2023-04-26T20:14:19.292Z,7.06
2023-04-26T20:16:46.033Z,7.09
2023-04-26T20:19:13.165Z,7.23
2023-04-26T20:21:39.793Z,7.14
2023-04-26T20:24:06.871Z,7.19
2023-04-26T20:26:33.604Z,7.09
2023-04-26T20:29:00.282Z,7.05
2023-04-26T20:31:26.954Z,6.88
2023-04-26T20:33:53.740Z,6.99
2023-04-26T20:36:22.924Z,6.83
2023-04-26T20:38:49.583Z,6.92
2023-04-26T20:41:16.215Z,6.70
2023-04-26T20:43:42.834Z,6.88
2023-04-26T20:46:09.552Z,6.93
2023-04-26T20:48:36.286Z,6.98
2023-04-26T20:51:02.982Z,6.89
2023-04-26T20:53:29.742Z,6.70
2023-04-26T20:55:56.573Z,6.43
2023-04-26T20:58:23.189Z,6.34
2023-04-26T21:00:50.493Z,6.36
2023-04-26T21:03:17.430Z,6.59
2023-04-26T21:05:44.172Z,6.44
2023-04-26T21:08:10.868Z,6.31
2023-04-26T21:10:37.526Z,6.39
2023-04-26T21:13:04.253Z,6.52
2023-04-26T21:15:30.906Z,6.48
2023-04-26T21:17:57.618Z,6.48
2023-04-26T21:20:24.304Z,6.57
2023-04-26T21:22:50.901Z,6.50
2023-04-26T21:25:17.552Z,6.53
2023-04-26T21:27:44.182Z,6.52
2023-04-26T21:30:11.559Z,6.49
2023-04-26T21:32:38.385Z,6.47
2023-04-26T21:35:05.367Z,6.39
2023-04-26T21:37:31.907Z,6.34
2023-04-26T21:39:58.776Z,6.03
2023-04-26T21:42:25.434Z,6.06
2023-04-26T21:44:52.390Z,6.07
2023-04-26T21:47:19.341Z,5.97
2023-04-26T21:49:46.031Z,5.91
2023-04-26T21:52:12.667Z,5.94
2023-04-26T21:54:39.482Z,5.52
2023-04-26T21:57:06.116Z,5.58
2023-04-26T21:59:33.485Z,5.48
2023-04-26T22:02:00.276Z,5.60
2023-04-26T22:04:27.172Z,5.24
2023-04-26T22:06:53.802Z,5.00
2023-04-26T22:09:20.877Z,5.22
2023-04-26T22:11:47.638Z,5.21
2023-04-26T22:14:14.277Z,5.29
2023-04-26T22:16:40.925Z,5.21
2023-04-26T22:19:10.551Z,5.48
2023-04-26T22:21:37.577Z,5.35
2023-04-26T22:24:04.354Z,5.34
2023-04-26T22:26:30.987Z,5.32
2023-04-26T22:28:57.775Z,5.28
2023-04-26T22:31:25.288Z,5.36
2023-04-26T22:33:52.066Z,5.33
2023-04-26T22:36:18.760Z,5.33
2023-04-26T22:38:45.418Z,5.34
2023-04-26T22:41:12.003Z,5.41
2023-04-26T22:43:38.637Z,5.41
2023-04-26T22:46:05.365Z,5.37
2023-04-26T22:48:32.039Z,5.21
2023-04-26T22:50:58.633Z,5.23
2023-04-26T22:53:25.309Z,5.20
2023-04-26T22:55:51.956Z,5.18
2023-04-26T22:58:18.659Z,5.40
2023-04-26T23:00:45.248Z,5.17
2023-04-26T23:03:11.969Z,5.26
2023-04-26T23:05:38.792Z,5.10
2023-04-26T23:08:05.649Z,5.07
2023-04-26T23:10:32.284Z,5.06
2023-04-26T23:12:58.885Z,5.17
2023-04-26T23:15:25.602Z,5.06
2023-04-26T23:17:52.236Z,5.09
2023-04-26T23:20:19.088Z,4.98
2023-04-26T23:22:45.724Z,5.03
2023-04-26T23:25:12.409Z,5.08
2023-04-26T23:27:39.120Z,5.06
2023-04-26T23:30:06.811Z,5.05
2023-04-26T23:32:33.581Z,5.04
2023-04-26T23:35:00.276Z,5.01
2023-04-26T23:37:26.915Z,4.89
2023-04-26T23:39:53.640Z,4.67
2023-04-26T23:42:20.298Z,4.71
2023-04-26T23:44:46.942Z,4.60
2023-04-26T23:47:13.601Z,4.73
2023-04-26T23:49:40.189Z,4.54
2023-04-26T23:52:06.869Z,4.46
2023-04-26T23:54:33.612Z,4.39
2023-04-26T23:57:00.224Z,4.33
2023-04-26T23:59:26.839Z,4.45
